Terminal Aerodrome Forecast
Issued by NWS Blacksburg, VA

Current Version | Previous Version | Text Only | Print | Product List | Glossary Off
Versions: 1 2 3 4 5 6 7 8 9 10 11 12 13 14 15 16 17 18 19 20 21 22 23 24 25 26 27 28 29 30 31 32 33 34 35 36 37 38 39 40 41 42

000
FTUS41 KRNK 251740
TAFBLF
TAF
KBLF 251740Z 2518/2618 27008KT P6SM OVC250
     FM252100 10004KT P6SM OVC150
     FM260100 12004KT P6SM OVC040
     FM260300 13003KT 4SM -SN OVC020
     FM260500 12003KT 1 1/2SM -SN BR OVC004
     FM260900 11004KT 3SM -SN BR OVC015
     FM261400 13004KT 6SM -SN BR OVC020
     FM261700 26005KT P6SM -SHSN OVC025=

USA.gov is the U.S. government's official web portal to all federal, state and local government web resources and services.